This is the latest recevied weather packets stored in our database for station/object KQ4JKJ. If no packets are shown the sender has not sent any weather packets the latest 10 day(s).
| Time | Temp. | Humidity | Pressure | Rain* | Wind** | Luminosity | Snow |
|---|---|---|---|---|---|---|---|
| 1777410502 | 27.22° C | 72% | 1013.1 hPa | 0 mm | - | 355 W/m² | - |
| 1777410202 | 27.78° C | 70% | 1013 hPa | 0 mm | - | 368 W/m² | - |
| 1777409897 | 27.78° C | 69% | 1013.1 hPa | 0 mm | - | 371 W/m² | - |
| 1777409593 | 27.78° C | 69% | 1013.2 hPa | 0 mm | - | 394 W/m² | - |
| 1777409288 | 27.78° C | 70% | 1013.3 hPa | 0 mm | - | 414 W/m² | - |
| 1777408985 | 27.78° C | 70% | 1013.3 hPa | 0 mm | - | 432 W/m² | - |
| 1777408681 | 27.78° C | 71% | 1013.4 hPa | 0 mm | - | 447 W/m² | - |
| 1777408377 | 27.78° C | 71% | 1013.3 hPa | 0 mm | - | 465 W/m² | - |
| 1777408076 | 27.78° C | 70% | 1013.4 hPa | 0 mm | - | 500 W/m² | - |
| 1777407773 | 27.78° C | 72% | 1013.5 hPa | 0 mm | - | 525 W/m² | - |
| 1777407469 | 27.78° C | 70% | 1013.7 hPa | 0 mm | - | 549 W/m² | - |
| 1777407164 | 28.89° C | 68% | 1013.8 hPa | 0 mm | - | 525 W/m² | - |
| 1777406859 | 28.33° C | 70% | 1013.8 hPa | 0 mm | - | 547 W/m² | - |
| 1777406554 | 28.33° C | 68% | 1013.8 hPa | 0 mm | - | 551 W/m² | - |
| 1777406250 | 28.33° C | 68% | 1013.9 hPa | 0 mm | - | 580 W/m² | - |
| 1777405949 | 27.78° C | 68% | 1013.9 hPa | 0 mm | - | 575 W/m² | - |
| 1777405646 | 28.89° C | 65% | 1014.2 hPa | 0 mm | - | 580 W/m² | - |
| 1777405343 | 28.33° C | 69% | 1013.9 hPa | 0 mm | - | 591 W/m² | - |
| 1777405039 | 28.33° C | 67% | 1014 hPa | 0 mm | - | 600 W/m² | - |
| 1777404733 | 28.33° C | 67% | 1014 hPa | 0 mm | - | 614 W/m² | - |
| 1777404429 | 28.33° C | 68% | 1014 hPa | 0 mm | - | 621 W/m² | - |
| 1777404126 | 28.33° C | 68% | 1013.9 hPa | 0 mm | - | 633 W/m² | - |
| 1777403823 | 28.89° C | 67% | 1014 hPa | 0 mm | - | 638 W/m² | - |
| 1777403522 | 28.89° C | 68% | 1014 hPa | 0 mm | - | 652 W/m² | - |
| 1777403216 | 28.89° C | 67% | 1014 hPa | 0 mm | - | 670 W/m² | - |
* Rain latest hour (hover to see other rain measurements)
** Current wind speed in m/s (hover to see current wind gust speed)